createdAt,value
2024-02-08T00:00:06.373Z,76.50
2024-02-08T00:02:34.514Z,77.17
2024-02-08T00:05:04.223Z,77.70
2024-02-08T00:07:32.457Z,77.51
2024-02-08T00:10:00.855Z,77.62
2024-02-08T00:12:32.003Z,77.80
2024-02-08T00:15:00.322Z,77.32
2024-02-08T00:17:29.138Z,77.92
2024-02-08T00:19:57.394Z,77.61
2024-02-08T00:22:27.105Z,77.29
2024-02-08T00:24:56.667Z,77.40
2024-02-08T00:27:25.032Z,77.24
2024-02-08T00:29:53.244Z,77.58
2024-02-08T00:48:05.812Z,76.83
2024-02-08T00:50:35.983Z,76.72
2024-02-08T00:53:07.209Z,76.58
2024-02-08T00:55:36.084Z,76.93
2024-02-08T00:58:04.748Z,76.21
2024-02-08T01:00:39.306Z,75.53
2024-02-08T01:03:09.516Z,76.21
2024-02-08T01:05:37.730Z,76.57
2024-02-08T01:08:06.669Z,76.47
2024-02-08T01:10:34.946Z,75.57
2024-02-08T01:13:03.169Z,76.14
2024-02-08T01:15:31.378Z,76.11
2024-02-08T01:18:02.803Z,76.05
2024-02-08T01:20:33.500Z,75.98
2024-02-08T01:23:05.834Z,76.19
2024-02-08T01:25:34.458Z,76.60
2024-02-08T01:28:02.773Z,76.20
2024-02-08T01:30:30.924Z,76.56
2024-02-08T01:33:00.739Z,76.90
2024-02-08T01:35:29.082Z,76.20
2024-02-08T01:38:00.400Z,76.11
2024-02-08T01:40:28.731Z,76.01
2024-02-08T01:42:59.395Z,76.29
2024-02-08T01:45:39.758Z,76.51
2024-02-08T01:48:11.746Z,75.70
2024-02-08T01:50:43.871Z,75.83
2024-02-08T01:53:19.884Z,75.43
2024-02-08T01:55:51.959Z,75.48
2024-02-08T01:58:22.097Z,75.82
2024-02-08T02:00:54.649Z,76.32
2024-02-08T02:03:24.899Z,76.71
2024-02-08T02:05:53.294Z,76.11
2024-02-08T02:08:27.964Z,76.50
2024-02-08T02:11:09.479Z,75.91
2024-02-08T02:13:39.917Z,75.97
2024-02-08T02:16:08.664Z,75.42
2024-02-08T02:18:37.917Z,75.78
2024-02-08T02:21:06.025Z,76.42
2024-02-08T02:23:35.355Z,76.34
2024-02-08T02:26:03.780Z,76.42
2024-02-08T02:28:32.441Z,76.32
2024-02-08T02:31:03.375Z,76.86
2024-02-08T02:33:31.613Z,75.92
2024-02-08T02:35:59.817Z,76.23
2024-02-08T02:38:28.295Z,76.17
2024-02-08T02:41:06.002Z,75.63
2024-02-08T02:43:34.340Z,76.31
2024-02-08T02:46:02.629Z,76.10
2024-02-08T02:48:32.806Z,76.60
2024-02-08T02:51:02.561Z,76.37
2024-02-08T02:53:31.999Z,75.66
2024-02-08T02:56:01.687Z,75.59
2024-02-08T02:58:29.902Z,75.30
2024-02-08T03:01:06.304Z,75.43
2024-02-08T03:03:39.348Z,74.85
2024-02-08T03:06:15.774Z,74.40
2024-02-08T03:08:45.379Z,75.69
2024-02-08T03:11:16.054Z,75.87
2024-02-08T03:13:47.265Z,75.37
2024-02-08T03:16:16.400Z,75.43
2024-02-08T03:18:47.842Z,75.69
2024-02-08T03:21:19.666Z,75.71
2024-02-08T03:23:49.394Z,74.82
2024-02-08T03:26:18.752Z,75.18
2024-02-08T03:28:50.099Z,75.72
2024-02-08T03:31:19.022Z,75.82
2024-02-08T03:33:47.223Z,75.06
2024-02-08T03:36:15.572Z,76.23
2024-02-08T03:38:45.555Z,75.76
2024-02-08T03:41:13.975Z,75.37
2024-02-08T03:43:43.664Z,74.47
2024-02-08T03:46:11.914Z,74.35
2024-02-08T03:48:41.522Z,74.09
2024-02-08T03:51:12.201Z,74.10
2024-02-08T03:53:40.425Z,74.41
2024-02-08T03:56:09.056Z,74.57
2024-02-08T03:58:38.151Z,74.20
2024-02-08T04:01:10.166Z,74.12
2024-02-08T04:03:55.223Z,74.16
2024-02-08T04:06:37.576Z,74.51
2024-02-08T04:09:10.781Z,73.29
2024-02-08T04:11:56.806Z,73.40
2024-02-08T04:14:42.657Z,73.23
2024-02-08T04:17:29.858Z,72.36
2024-02-08T04:20:15.494Z,72.98
2024-02-08T04:23:01.136Z,74.20
2024-02-08T04:25:55.323Z,75.03
2024-02-08T04:28:41.005Z,73.18
2024-02-08T04:31:28.762Z,74.27
2024-02-08T04:34:16.012Z,74.05
2024-02-08T04:37:01.637Z,72.85
2024-02-08T04:39:47.327Z,74.57
2024-02-08T04:42:32.925Z,74.18
2024-02-08T04:45:30.344Z,73.77
2024-02-08T04:48:16.649Z,73.00
2024-02-08T04:51:03.946Z,74.75
2024-02-08T04:53:44.966Z,74.04
2024-02-08T04:56:16.892Z,74.41
2024-02-08T04:59:08.195Z,74.13
2024-02-08T05:01:39.840Z,73.66
2024-02-08T05:04:08.326Z,74.63
2024-02-08T05:06:38.670Z,75.02
2024-02-08T05:09:06.942Z,74.33
2024-02-08T05:11:38.492Z,74.70
2024-02-08T05:14:07.024Z,72.05
2024-02-08T05:16:38.821Z,72.63
2024-02-08T05:19:07.276Z,73.93
2024-02-08T05:21:42.605Z,73.88
2024-02-08T05:24:15.118Z,73.07
2024-02-08T05:26:44.738Z,72.75
2024-02-08T05:29:14.474Z,72.86
2024-02-08T05:31:43.153Z,71.93
2024-02-08T05:34:17.181Z,71.89
2024-02-08T05:36:47.933Z,73.05
2024-02-08T05:39:26.282Z,72.34
2024-02-08T05:41:57.374Z,72.91
2024-02-08T05:44:31.824Z,72.73
2024-02-08T05:47:08.385Z,73.30
2024-02-08T05:49:37.811Z,72.35
2024-02-08T05:52:08.865Z,72.77
2024-02-08T05:54:42.079Z,73.54
2024-02-08T05:57:12.946Z,72.64
2024-02-08T05:59:42.032Z,73.44
2024-02-08T06:02:25.041Z,73.06
2024-02-08T06:05:02.805Z,72.37
2024-02-08T06:07:32.914Z,73.78
2024-02-08T06:10:15.460Z,73.28
2024-02-08T06:12:53.608Z,74.57
2024-02-08T06:15:27.759Z,73.79
2024-02-08T06:18:00.765Z,73.63
2024-02-08T06:20:35.523Z,73.70
2024-02-08T06:23:18.678Z,73.75
2024-02-08T06:26:12.514Z,74.00
2024-02-08T06:28:48.124Z,73.32
2024-02-08T06:31:20.073Z,73.20
2024-02-08T06:34:03.294Z,72.90
2024-02-08T06:36:31.840Z,73.99
2024-02-08T06:39:19.694Z,72.67
2024-02-08T06:41:53.995Z,73.12
2024-02-08T06:44:48.454Z,72.08
2024-02-08T06:47:52.197Z,71.98
2024-02-08T06:50:38.152Z,73.01
2024-02-08T06:53:23.927Z,71.31
2024-02-08T06:56:09.628Z,72.81
2024-02-08T06:58:56.620Z,71.17
2024-02-08T07:01:42.299Z,72.71
2024-02-08T07:04:27.882Z,71.78
2024-02-08T07:07:13.528Z,72.92
2024-02-08T07:09:56.037Z,72.65
2024-02-08T07:12:41.517Z,72.64
2024-02-08T07:15:28.648Z,73.14
2024-02-08T07:18:14.570Z,72.87
2024-02-08T07:21:00.625Z,72.26
2024-02-08T07:23:46.270Z,72.56
2024-02-08T07:26:34.880Z,72.21
2024-02-08T07:29:21.119Z,72.76
2024-02-08T07:32:08.449Z,72.24
2024-02-08T07:34:54.835Z,71.98
2024-02-08T07:37:27.432Z,71.63
2024-02-08T07:40:03.592Z,71.98
2024-02-08T07:42:34.203Z,71.81
2024-02-08T07:45:06.295Z,72.70
2024-02-08T07:47:36.411Z,72.29
2024-02-08T07:50:06.893Z,71.88
2024-02-08T07:52:39.793Z,71.59
2024-02-08T07:55:21.942Z,70.75
2024-02-08T07:57:59.312Z,72.21
2024-02-08T08:00:43.718Z,70.99
2024-02-08T08:03:18.308Z,72.13
2024-02-08T08:05:52.478Z,71.15
2024-02-08T08:08:27.780Z,70.78
2024-02-08T08:10:58.338Z,70.67
2024-02-08T08:13:48.695Z,72.39
2024-02-08T08:16:34.572Z,71.97
2024-02-08T08:19:10.848Z,71.53
2024-02-08T08:21:54.663Z,71.89
2024-02-08T08:24:26.965Z,72.58
2024-02-08T08:27:07.864Z,71.31
2024-02-08T08:29:45.018Z,71.53
2024-02-08T08:32:36.465Z,71.05
2024-02-08T08:35:25.333Z,72.16
2024-02-08T08:38:15.232Z,71.52
2024-02-08T08:40:43.762Z,71.58
2024-02-08T08:43:22.109Z,71.70
2024-02-08T08:45:52.099Z,71.64
2024-02-08T08:48:20.937Z,72.41
2024-02-08T08:50:56.458Z,71.20
2024-02-08T08:53:28.888Z,71.31
2024-02-08T08:55:57.816Z,71.51
2024-02-08T08:58:29.429Z,71.73
2024-02-08T09:01:13.295Z,72.66
2024-02-08T09:03:42.261Z,71.74
2024-02-08T09:06:13.531Z,72.88
2024-02-08T09:08:47.346Z,72.61
2024-02-08T09:11:16.076Z,72.47
2024-02-08T09:13:46.031Z,71.93
2024-02-08T09:16:38.555Z,73.27
2024-02-08T09:19:06.737Z,72.39
2024-02-08T09:21:37.736Z,73.32
2024-02-08T09:24:07.638Z,73.70
2024-02-08T09:26:49.911Z,74.91
2024-02-08T09:29:28.713Z,74.34
2024-02-08T09:32:00.339Z,74.65
2024-02-08T09:34:41.205Z,72.80
2024-02-08T09:37:12.654Z,74.06
2024-02-08T09:40:00.552Z,73.27
2024-02-08T09:42:30.845Z,73.94
2024-02-08T09:45:15.704Z,73.41
2024-02-08T09:47:53.534Z,72.46
2024-02-08T09:50:32.675Z,72.23
2024-02-08T09:53:08.710Z,72.49
2024-02-08T09:55:39.383Z,71.74
2024-02-08T09:58:11.864Z,72.15
2024-02-08T10:00:56.372Z,72.10
2024-02-08T10:03:34.087Z,72.37
2024-02-08T10:06:14.007Z,72.91
2024-02-08T10:08:52.458Z,73.51
2024-02-08T10:11:37.412Z,73.69
2024-02-08T10:14:25.213Z,73.94
2024-02-08T10:16:54.902Z,72.94
2024-02-08T10:19:49.310Z,72.64
2024-02-08T10:22:19.992Z,74.48
2024-02-08T10:25:07.673Z,73.05
2024-02-08T10:27:37.444Z,72.68
2024-02-08T10:30:07.626Z,72.93
2024-02-08T10:32:37.462Z,73.25
2024-02-08T10:35:15.426Z,73.46
2024-02-08T10:37:49.133Z,73.57
2024-02-08T10:40:31.889Z,74.78
2024-02-08T10:43:01.381Z,73.87
2024-02-08T10:45:33.898Z,73.92
2024-02-08T10:48:04.945Z,72.28
2024-02-08T10:50:36.307Z,72.22
2024-02-08T10:53:17.752Z,72.20
2024-02-08T10:55:53.971Z,73.52
2024-02-08T10:58:22.828Z,73.34
2024-02-08T11:01:08.747Z,74.23
2024-02-08T11:03:43.894Z,74.63
2024-02-08T11:06:29.897Z,74.88
2024-02-08T11:09:13.396Z,74.69
2024-02-08T11:11:47.261Z,75.03
2024-02-08T11:14:20.600Z,75.43
2024-02-08T11:16:53.097Z,75.04
2024-02-08T11:19:23.917Z,72.64
2024-02-08T11:21:53.246Z,72.11
2024-02-08T11:24:29.950Z,70.96
2024-02-08T11:27:04.004Z,70.69
2024-02-08T11:29:47.129Z,71.98
2024-02-08T11:32:18.672Z,72.98
2024-02-08T11:34:48.776Z,73.74
2024-02-08T11:37:21.092Z,74.00
2024-02-08T11:40:01.939Z,75.06
2024-02-08T11:42:38.466Z,73.56
2024-02-08T11:45:11.398Z,73.91
2024-02-08T11:47:43.510Z,73.35
2024-02-08T11:50:22.923Z,73.18
2024-02-08T11:52:59.470Z,72.74
2024-02-08T11:55:30.159Z,73.27
2024-02-08T11:58:00.822Z,72.97
2024-02-08T12:00:32.113Z,72.09
2024-02-08T12:03:02.833Z,71.88
2024-02-08T12:05:34.724Z,72.06
2024-02-08T12:08:11.616Z,70.19
2024-02-08T12:10:43.639Z,70.73
2024-02-08T12:13:15.841Z,69.55
2024-02-08T12:15:57.618Z,69.19
2024-02-08T12:18:28.975Z,69.03
2024-02-08T12:20:58.756Z,69.03
2024-02-08T12:23:32.494Z,67.99
2024-02-08T12:26:04.804Z,68.52
2024-02-08T12:28:39.316Z,68.19
2024-02-08T12:31:18.367Z,66.40
2024-02-08T12:33:53.404Z,64.75
2024-02-08T12:36:25.481Z,63.86
2024-02-08T12:38:55.490Z,62.69
2024-02-08T12:41:24.835Z,62.69
2024-02-08T12:43:55.741Z,61.65
2024-02-08T12:46:24.880Z,60.41
2024-02-08T12:48:53.219Z,59.51
2024-02-08T12:51:24.509Z,59.12
2024-02-08T12:53:58.636Z,58.75
2024-02-08T12:56:27.325Z,58.69
2024-02-08T12:59:03.315Z,59.35
2024-02-08T13:01:40.486Z,59.85
2024-02-08T13:04:09.347Z,60.27
2024-02-08T13:06:37.849Z,59.78
2024-02-08T13:09:27.771Z,61.07
2024-02-08T13:12:16.470Z,60.30
2024-02-08T13:15:04.096Z,59.50
2024-02-08T13:17:35.423Z,58.45
2024-02-08T13:20:13.827Z,58.49
2024-02-08T13:22:46.834Z,58.85
2024-02-08T13:25:19.736Z,59.42
2024-02-08T13:27:51.389Z,59.11
2024-02-08T13:30:22.795Z,59.55
2024-02-08T13:32:53.844Z,60.05
2024-02-08T13:35:24.528Z,60.62
2024-02-08T13:37:54.866Z,61.93
2024-02-08T13:40:24.899Z,63.00
2024-02-08T13:42:57.350Z,64.08
2024-02-08T13:45:31.243Z,64.54
2024-02-08T13:48:04.821Z,65.19
2024-02-08T13:50:34.735Z,65.53
2024-02-08T13:53:05.075Z,66.19
2024-02-08T13:58:08.957Z,67.40
2024-02-08T14:00:43.028Z,66.94
2024-02-08T14:03:11.471Z,67.36
2024-02-08T14:05:41.954Z,67.81
2024-02-08T14:08:18.729Z,68.32
2024-02-08T14:10:49.083Z,69.18
2024-02-08T14:13:30.434Z,68.53
2024-02-08T14:16:08.270Z,69.79
2024-02-08T14:18:39.976Z,69.70
2024-02-08T14:21:11.708Z,69.35
2024-02-08T14:23:42.650Z,70.17
2024-02-08T14:26:33.915Z,70.78
2024-02-08T14:29:04.168Z,71.50
2024-02-08T14:31:38.846Z,70.61
2024-02-08T14:34:12.849Z,72.09
2024-02-08T14:36:49.764Z,71.31
2024-02-08T14:39:34.237Z,71.32
2024-02-08T14:42:03.195Z,72.21
2024-02-08T14:44:42.415Z,71.58
2024-02-08T14:47:22.811Z,72.78
2024-02-08T14:50:01.099Z,71.94
2024-02-08T14:52:37.446Z,72.96
2024-02-08T14:55:22.432Z,72.55
2024-02-08T14:57:54.302Z,73.58
2024-02-08T15:00:40.552Z,71.94
2024-02-08T15:03:11.182Z,72.52
2024-02-08T15:05:49.461Z,72.17
2024-02-08T15:08:47.484Z,72.30
2024-02-08T15:11:33.196Z,73.08
2024-02-08T15:14:03.451Z,74.18
2024-02-08T15:16:33.014Z,73.56
2024-02-08T15:19:03.512Z,74.10
2024-02-08T15:21:37.483Z,74.79
2024-02-08T15:24:23.535Z,74.77
2024-02-08T15:27:06.844Z,74.69
2024-02-08T15:29:46.208Z,74.61
2024-02-08T15:32:19.896Z,74.90
2024-02-08T15:35:07.822Z,75.52
2024-02-08T15:37:43.849Z,76.00
2024-02-08T15:40:14.119Z,76.40
2024-02-08T15:42:43.658Z,75.92
2024-02-08T15:45:12.631Z,77.09
2024-02-08T15:47:56.558Z,76.47
2024-02-08T15:50:37.593Z,76.52
2024-02-08T15:53:10.975Z,76.65
2024-02-08T15:55:44.248Z,76.30
2024-02-08T15:58:27.679Z,76.32
2024-02-08T16:01:21.925Z,76.63
2024-02-08T16:03:59.328Z,76.60
2024-02-08T16:06:45.938Z,77.25
2024-02-08T16:09:27.433Z,77.47
2024-02-08T16:12:01.393Z,77.95
2024-02-08T16:14:32.089Z,78.57
2024-02-08T16:17:30.991Z,78.57
2024-02-08T16:20:07.260Z,79.19
2024-02-08T16:22:49.206Z,79.36
2024-02-08T16:25:42.211Z,78.95
2024-02-08T16:28:18.103Z,79.20
2024-02-08T16:31:10.062Z,78.61
2024-02-08T16:33:49.534Z,78.24
2024-02-08T16:36:33.120Z,78.22
2024-02-08T16:39:10.100Z,77.34
2024-02-08T16:41:49.889Z,77.59
2024-02-08T16:44:23.833Z,78.66
2024-02-08T16:46:55.228Z,79.13
2024-02-08T16:49:29.254Z,79.60
2024-02-08T16:51:58.109Z,79.53
2024-02-08T16:54:35.004Z,79.36
2024-02-08T16:57:05.426Z,79.19
2024-02-08T16:59:46.490Z,79.29
2024-02-08T17:02:21.010Z,80.63
2024-02-08T17:04:51.235Z,80.60
2024-02-08T17:07:26.356Z,80.00
2024-02-08T17:09:59.721Z,79.93
2024-02-08T17:12:46.419Z,80.13
2024-02-08T17:15:28.577Z,80.90
2024-02-08T17:18:07.653Z,79.71
2024-02-08T17:20:44.408Z,80.54
2024-02-08T17:23:29.528Z,79.08
2024-02-08T17:26:07.931Z,78.68
2024-02-08T17:28:51.345Z,79.23
2024-02-08T17:31:30.002Z,80.27
2024-02-08T17:33:59.353Z,79.84
2024-02-08T17:36:32.321Z,78.80
2024-02-08T17:39:00.682Z,79.70
2024-02-08T17:41:30.346Z,78.38
2024-02-08T17:44:05.189Z,78.19
2024-02-08T17:46:39.735Z,78.40
2024-02-08T17:49:17.287Z,78.85
2024-02-08T17:51:51.196Z,78.71
2024-02-08T17:54:26.464Z,79.41
2024-02-08T17:57:03.706Z,76.91
2024-02-08T17:59:32.643Z,76.68
2024-02-08T18:02:05.866Z,77.55
2024-02-08T18:04:38.505Z,77.03
2024-02-08T18:07:12.946Z,76.98
2024-02-08T18:09:43.854Z,75.78
2024-02-08T18:12:23.885Z,77.39
2024-02-08T18:14:57.352Z,76.84
2024-02-08T18:17:26.512Z,77.48
2024-02-08T18:19:55.849Z,77.31
2024-02-08T18:22:31.692Z,77.38
2024-02-08T18:25:01.382Z,78.09
2024-02-08T18:27:34.269Z,77.99
2024-02-08T18:30:10.803Z,80.07
2024-02-08T18:32:40.420Z,77.84
2024-02-08T18:35:09.776Z,78.62
2024-02-08T18:37:38.324Z,78.20
2024-02-08T18:40:09.695Z,77.55
2024-02-08T18:42:40.393Z,77.32
2024-02-08T18:45:17.790Z,77.55
2024-02-08T18:47:51.377Z,77.47
2024-02-08T18:50:19.965Z,79.65
2024-02-08T18:52:51.537Z,78.86
2024-02-08T18:55:35.031Z,78.62
2024-02-08T18:58:04.898Z,78.53
2024-02-08T19:00:35.036Z,77.50
2024-02-08T19:03:09.060Z,78.38
2024-02-08T19:05:41.999Z,79.20
2024-02-08T19:08:15.406Z,78.59
2024-02-08T19:10:49.496Z,79.13
2024-02-08T19:13:27.162Z,76.86
2024-02-08T19:15:58.244Z,78.40
2024-02-08T19:18:34.028Z,76.85
2024-02-08T19:21:02.401Z,76.46
2024-02-08T19:23:32.790Z,76.21
2024-02-08T19:26:08.757Z,75.41
2024-02-08T19:28:38.199Z,74.19
2024-02-08T19:31:10.994Z,73.97
2024-02-08T19:33:43.108Z,74.34
2024-02-08T19:36:11.908Z,74.98
2024-02-08T19:38:40.184Z,75.82
2024-02-08T19:41:08.688Z,76.12
2024-02-08T19:43:43.035Z,75.43
2024-02-08T19:46:12.996Z,75.78
2024-02-08T19:48:42.717Z,75.67
2024-02-08T19:51:11.311Z,76.29
2024-02-08T19:53:40.396Z,77.29
2024-02-08T19:56:12.540Z,78.44
2024-02-08T19:58:44.449Z,78.85
2024-02-08T20:01:17.860Z,79.55
2024-02-08T20:03:48.704Z,78.70
2024-02-08T20:06:22.503Z,78.63
2024-02-08T20:08:55.825Z,78.77
2024-02-08T20:11:25.733Z,77.58
2024-02-08T20:14:00.411Z,77.42
2024-02-08T20:16:31.767Z,76.67
2024-02-08T20:19:02.577Z,76.10
2024-02-08T20:21:32.950Z,75.27
2024-02-08T20:24:01.889Z,75.51
2024-02-08T20:26:30.242Z,75.45
2024-02-08T20:29:05.922Z,75.69
2024-02-08T20:31:36.726Z,75.50
2024-02-08T20:34:06.811Z,74.97
2024-02-08T20:36:35.140Z,74.73
2024-02-08T20:39:03.642Z,75.35
2024-02-08T20:41:32.101Z,74.85
2024-02-08T20:44:12.046Z,75.74
2024-02-08T20:46:41.562Z,75.89
2024-02-08T20:49:13.495Z,75.38
2024-02-08T20:51:42.393Z,74.51
2024-02-08T20:54:12.508Z,75.65
2024-02-08T20:56:41.656Z,74.80
2024-02-08T20:59:12.064Z,73.88
2024-02-08T21:01:40.599Z,73.32
2024-02-08T21:04:09.700Z,72.88
2024-02-08T21:06:38.993Z,72.90
2024-02-08T21:09:08.616Z,72.77
2024-02-08T21:11:36.932Z,74.00
2024-02-08T21:14:05.332Z,73.71
2024-02-08T21:16:35.361Z,74.56
2024-02-08T21:19:10.298Z,74.58
2024-02-08T21:21:38.732Z,73.64
2024-02-08T21:24:12.066Z,73.33
2024-02-08T21:26:40.931Z,73.58
2024-02-08T21:29:11.466Z,73.61
2024-02-08T21:31:46.606Z,73.09
2024-02-08T21:34:16.100Z,72.27
2024-02-08T21:36:44.605Z,72.15
2024-02-08T21:39:20.065Z,71.99
2024-02-08T21:41:48.966Z,72.47
2024-02-08T21:44:17.245Z,71.96
2024-02-08T21:46:51.143Z,72.05
2024-02-08T21:49:26.938Z,72.01
2024-02-08T21:51:56.216Z,71.65
2024-02-08T21:54:27.371Z,71.61
2024-02-08T21:56:56.118Z,71.82
2024-02-08T21:59:24.316Z,71.65
2024-02-08T22:01:53.864Z,71.16
2024-02-08T22:04:22.108Z,71.70
2024-02-08T22:06:50.415Z,72.68
2024-02-08T22:09:19.345Z,72.93
2024-02-08T22:11:48.317Z,72.68
2024-02-08T22:14:17.165Z,73.60
2024-02-08T22:16:46.308Z,73.23
2024-02-08T22:19:16.012Z,71.78
2024-02-08T22:21:46.398Z,71.60
2024-02-08T22:24:14.895Z,72.70
2024-02-08T22:26:49.011Z,71.91
2024-02-08T22:29:17.755Z,71.69
2024-02-08T22:31:47.776Z,71.46
2024-02-08T22:34:17.567Z,70.85
2024-02-08T22:36:48.383Z,71.09
2024-02-08T22:39:16.718Z,70.70
2024-02-08T22:41:48.891Z,71.76
2024-02-08T22:44:17.355Z,71.57
2024-02-08T22:46:45.815Z,71.20
2024-02-08T22:49:14.827Z,71.00
2024-02-08T22:51:47.378Z,71.99
2024-02-08T22:54:18.393Z,71.20
2024-02-08T22:56:46.661Z,72.21
2024-02-08T22:59:17.631Z,70.90
2024-02-08T23:01:53.872Z,71.45
2024-02-08T23:04:22.880Z,71.07
2024-02-08T23:06:52.978Z,71.37
2024-02-08T23:09:21.390Z,70.61
2024-02-08T23:11:51.526Z,71.80
2024-02-08T23:14:22.732Z,71.77
2024-02-08T23:16:53.011Z,70.79
2024-02-08T23:19:21.848Z,70.52
2024-02-08T23:21:59.445Z,70.53
2024-02-08T23:24:28.759Z,71.43
2024-02-08T23:26:57.067Z,70.42
2024-02-08T23:29:26.170Z,70.32
2024-02-08T23:31:54.475Z,71.61
2024-02-08T23:34:25.309Z,70.28
2024-02-08T23:36:55.463Z,71.81
2024-02-08T23:39:29.160Z,70.88
2024-02-08T23:41:58.743Z,71.02
2024-02-08T23:44:29.825Z,71.10
2024-02-08T23:46:58.348Z,70.25
2024-02-08T23:49:29.304Z,70.98
2024-02-08T23:52:00.110Z,70.77
2024-02-08T23:54:29.850Z,70.70
2024-02-08T23:56:58.550Z,70.49
2024-02-08T23:59:29.788Z,70.61
